Time;durP1;ratioP1;P1;durP2;ratioP2;P2;SDS_P1;SDS_P2;PMS_P1;PMS_P2;Temp;Humidity;BMP_temperature;BMP_pressure;BME280_temperature;BME280_humidity;BME280_pressure;Samples;Min_cycle;Max_cycle;Signal;HPM_P1;HPM_P2
2022/12/19 00:00:46;;;;;;;60.00;32.15;;;;;;;;;;5053314;28;20056;-73
2022/12/19 00:03:13;;;;;;;70.82;39.30;;;;;;;;;;5054084;28;20032;-71
2022/12/19 00:05:39;;;;;;;61.15;32.97;;;;;;;;;;5053789;28;20475;-71
2022/12/19 00:08:13;;;;;;;52.97;31.88;;;;;;;;;;5054339;28;20496;-71
2022/12/19 00:10:38;;;;;;;49.63;28.02;;;;;;;;;;5054002;28;20368;-71
2022/12/19 00:13:03;;;;;;;63.17;38.42;;;;;;;;;;5053921;28;20023;-70
2022/12/19 00:15:32;;;;;;;72.25;41.75;;;;;;;;;;5053766;28;20078;-70
2022/12/19 00:17:57;;;;;;;58.53;33.92;;;;;;;;;;5052295;28;20387;-70
2022/12/19 00:20:23;;;;;;;58.65;34.38;;;;;;;;;;5052440;28;20124;-70
2022/12/19 00:22:48;;;;;;;53.92;31.92;;;;;;;;;;5054080;28;20465;-70
2022/12/19 00:25:14;;;;;;;77.50;41.85;;;;;;;;;;5053752;28;20032;-70
2022/12/19 00:27:39;;;;;;;111.13;57.00;;;;;;;;;;5052815;28;20526;-70
2022/12/19 00:30:05;;;;;;;52.35;30.40;;;;;;;;;;5053548;28;20500;-70
2022/12/19 00:32:30;;;;;;;53.70;32.90;;;;;;;;;;5052143;28;20044;-70
2022/12/19 00:34:56;;;;;;;46.72;25.13;;;;;;;;;;5053792;28;20087;-69
2022/12/19 00:37:22;;;;;;;50.00;29.25;;;;;;;;;;5052706;28;20070;-70
2022/12/19 00:39:48;;;;;;;49.58;29.60;;;;;;;;;;5052315;28;20029;-70
2022/12/19 00:42:13;;;;;;;53.83;31.10;;;;;;;;;;5052592;28;20025;-69
2022/12/19 00:44:40;;;;;;;46.05;29.30;;;;;;;;;;5052571;28;20115;-69
2022/12/19 00:47:05;;;;;;;46.63;27.98;;;;;;;;;;5052420;28;20052;-69
2022/12/19 00:49:31;;;;;;;50.55;27.98;;;;;;;;;;5053519;28;20079;-70
2022/12/19 00:51:58;;;;;;;47.42;28.95;;;;;;;;;;5052566;28;20025;-71
2022/12/19 00:54:24;;;;;;;49.53;27.45;;;;;;;;;;5053688;28;20050;-70
2022/12/19 00:56:49;;;;;;;53.42;29.95;;;;;;;;;;5053653;28;20400;-71
2022/12/19 00:59:15;;;;;;;51.15;29.70;;;;;;;;;;5053739;28;20034;-70
2022/12/19 01:01:40;;;;;;;42.20;25.08;;;;;;;;;;5052112;28;20067;-71
2022/12/19 01:04:09;;;;;;;44.88;26.13;;;;;;;;;;5053506;28;20052;-71
2022/12/19 01:06:34;;;;;;;40.03;24.73;;;;;;;;;;5053242;28;20017;-71
2022/12/19 01:09:00;;;;;;;44.13;26.40;;;;;;;;;;5051860;28;20057;-72
2022/12/19 01:14:11;;;;;;;47.03;26.20;;;;;;;;;;5052224;28;20072;-71
2022/12/19 01:16:38;;;;;;;48.28;26.98;;;;;;;;;;5052128;28;20103;-71
2022/12/19 01:19:06;;;;;;;48.55;27.73;;;;;;;;;;5051753;28;20053;-71
2022/12/19 01:21:34;;;;;;;48.15;28.05;;;;;;;;;;5052109;28;20499;-72
2022/12/19 01:24:00;;;;;;;42.72;26.60;;;;;;;;;;5052627;28;20376;-71
2022/12/19 01:26:26;;;;;;;54.83;30.67;;;;;;;;;;5052213;28;20025;-72
2022/12/19 01:28:52;;;;;;;44.60;25.77;;;;;;;;;;5051606;28;20037;-71
2022/12/19 01:31:19;;;;;;;42.38;26.45;;;;;;;;;;5056424;28;20100;-71
2022/12/19 01:33:45;;;;;;;46.45;28.95;;;;;;;;;;5055339;28;20163;-71
2022/12/19 01:36:10;;;;;;;49.38;29.88;;;;;;;;;;5056592;28;20376;-71
2022/12/19 01:38:37;;;;;;;46.17;27.05;;;;;;;;;;5056350;28;20025;-72
2022/12/19 01:41:02;;;;;;;45.38;26.60;;;;;;;;;;5056675;28;20040;-71
2022/12/19 01:43:30;;;;;;;42.15;24.52;;;;;;;;;;5038969;28;20115;-71
2022/12/19 01:46:00;;;;;;;38.92;23.48;;;;;;;;;;5056391;28;20017;-71
2022/12/19 01:48:38;;;;;;;43.67;25.65;;;;;;;;;;5056747;28;20428;-71
2022/12/19 01:51:17;;;;;;;43.03;25.15;;;;;;;;;;5056556;28;20033;-71
2022/12/19 01:53:45;;;;;;;44.05;24.45;;;;;;;;;;5055156;28;20035;-71
2022/12/19 01:56:10;;;;;;;42.40;24.67;;;;;;;;;;5055118;28;20021;-71
2022/12/19 01:58:38;;;;;;;41.90;24.98;;;;;;;;;;5055168;28;20025;-71
2022/12/19 02:01:04;;;;;;;42.25;25.45;;;;;;;;;;5055033;28;20074;-71
2022/12/19 02:03:31;;;;;;;48.20;26.42;;;;;;;;;;5054892;28;20033;-70
2022/12/19 02:05:57;;;;;;;44.72;23.70;;;;;;;;;;5054852;28;20086;-70
2022/12/19 02:08:25;;;;;;;45.50;25.27;;;;;;;;;;5054621;28;20029;-70
2022/12/19 02:10:50;;;;;;;40.38;25.08;;;;;;;;;;5054593;28;20017;-70
2022/12/19 02:13:17;;;;;;;41.80;24.02;;;;;;;;;;5055179;28;20031;-70
2022/12/19 02:15:54;;;;;;;46.85;26.15;;;;;;;;;;5037836;28;20392;-70
2022/12/19 02:18:39;;;;;;;41.33;25.75;;;;;;;;;;5054859;28;20032;-70
2022/12/19 02:21:13;;;;;;;39.60;23.83;;;;;;;;;;4998963;28;20079;-70
2022/12/19 02:23:40;;;;;;;47.15;25.13;;;;;;;;;;5054545;28;20031;-70
2022/12/19 02:26:24;;;;;;;44.08;25.33;;;;;;;;;;5037948;28;20025;-70
2022/12/19 02:28:58;;;;;;;43.97;25.35;;;;;;;;;;5055802;28;20464;-70
2022/12/19 02:31:28;;;;;;;44.60;26.15;;;;;;;;;;5054275;28;20040;-70
2022/12/19 02:33:55;;;;;;;43.08;24.98;;;;;;;;;;5054744;28;20082;-70
2022/12/19 02:36:28;;;;;;;43.75;25.00;;;;;;;;;;5054406;28;20021;-70
2022/12/19 02:38:59;;;;;;;41.22;26.45;;;;;;;;;;5054334;28;20121;-70
2022/12/19 02:41:28;;;;;;;39.22;24.45;;;;;;;;;;5054066;28;20039;-70
2022/12/19 02:43:58;;;;;;;38.38;24.48;;;;;;;;;;5054120;28;20354;-68
2022/12/19 02:46:25;;;;;;;43.67;26.33;;;;;;;;;;5038241;28;20065;-68
2022/12/19 02:48:52;;;;;;;37.10;23.45;;;;;;;;;;5054138;28;20021;-68
2022/12/19 02:51:18;;;;;;;39.50;23.90;;;;;;;;;;5053803;28;20037;-71
2022/12/19 02:53:46;;;;;;;40.83;24.63;;;;;;;;;;5053810;28;20031;-70
2022/12/19 02:56:22;;;;;;;40.38;25.48;;;;;;;;;;5053973;28;20025;-70
2022/12/19 02:59:01;;;;;;;40.95;24.73;;;;;;;;;;5037804;28;20381;-72
2022/12/19 03:01:36;;;;;;;36.88;22.77;;;;;;;;;;5054283;28;20373;-73
2022/12/19 03:04:14;;;;;;;41.00;22.90;;;;;;;;;;5054112;28;20041;-73
2022/12/19 03:06:44;;;;;;;35.75;21.55;;;;;;;;;;5053763;28;20158;-73
2022/12/19 03:09:14;;;;;;;40.45;23.63;;;;;;;;;;5053361;28;20531;-73
2022/12/19 03:11:40;;;;;;;40.60;22.65;;;;;;;;;;5054784;28;20064;-71
2022/12/19 03:14:08;;;;;;;34.42;21.80;;;;;;;;;;5055055;28;20044;-71
2022/12/19 03:16:35;;;;;;;36.35;21.20;;;;;;;;;;5053628;28;20121;-70
2022/12/19 03:19:00;;;;;;;35.90;20.95;;;;;;;;;;5054803;28;20108;-71
2022/12/19 03:21:38;;;;;;;36.47;22.38;;;;;;;;;;5054793;28;20423;-71
2022/12/19 03:24:05;;;;;;;39.05;22.50;;;;;;;;;;5053371;28;20358;-70
2022/12/19 03:26:33;;;;;;;40.78;23.33;;;;;;;;;;5054724;28;20116;-70
2022/12/19 03:29:02;;;;;;;37.90;22.52;;;;;;;;;;5054667;28;20031;-70
2022/12/19 03:31:29;;;;;;;39.92;22.88;;;;;;;;;;5054524;28;20025;-70
2022/12/19 03:33:58;;;;;;;40.20;23.02;;;;;;;;;;5053336;28;20029;-70
2022/12/19 03:36:26;;;;;;;43.05;24.35;;;;;;;;;;5054463;28;20374;-70
2022/12/19 03:38:54;;;;;;;43.75;25.92;;;;;;;;;;5053295;28;20033;-70
2022/12/19 03:43:07;;;;;;;43.80;25.85;;;;;;;;;;5053241;28;20021;-70
2022/12/19 03:44:07;;;;;;;37.35;23.27;;;;;;;;;;5054717;28;20025;-70
2022/12/19 03:46:35;;;;;;;39.60;23.40;;;;;;;;;;5054743;28;20104;-69
2022/12/19 03:49:01;;;;;;;41.72;24.08;;;;;;;;;;5054607;28;20044;-71
2022/12/19 03:51:45;;;;;;;35.65;21.83;;;;;;;;;;5053330;28;20013;-71
2022/12/19 03:54:31;;;;;;;38.42;23.38;;;;;;;;;;5054175;28;20110;-71
2022/12/19 03:57:00;;;;;;;41.60;24.17;;;;;;;;;;5054087;28;20075;-70
2022/12/19 03:59:30;;;;;;;39.92;23.15;;;;;;;;;;5054049;28;20048;-70
2022/12/19 04:01:56;;;;;;;44.67;25.05;;;;;;;;;;5053121;28;20028;-70
2022/12/19 04:04:22;;;;;;;45.03;25.00;;;;;;;;;;5053742;28;20021;-70
2022/12/19 04:06:50;;;;;;;42.17;24.60;;;;;;;;;;5053989;28;20033;-70
2022/12/19 04:09:16;;;;;;;41.25;24.88;;;;;;;;;;5053788;28;20546;-70
2022/12/19 04:11:45;;;;;;;40.33;23.80;;;;;;;;;;5053669;28;20358;-71
2022/12/19 04:14:14;;;;;;;40.15;23.77;;;;;;;;;;5052301;28;20129;-71
2022/12/19 04:16:46;;;;;;;41.10;24.77;;;;;;;;;;5053675;28;20021;-71
2022/12/19 04:19:36;;;;;;;38.22;23.67;;;;;;;;;;5044195;28;20049;-71
2022/12/19 04:22:09;;;;;;;43.45;23.05;;;;;;;;;;5021072;28;20121;-70
2022/12/19 04:24:41;;;;;;;39.97;24.13;;;;;;;;;;5000355;28;20069;-70
2022/12/19 04:27:09;;;;;;;42.83;24.27;;;;;;;;;;5033674;28;20078;-70
2022/12/19 04:29:35;;;;;;;45.50;26.05;;;;;;;;;;5033884;28;20032;-69
2022/12/19 04:32:01;;;;;;;41.92;25.92;;;;;;;;;;5033844;28;20103;-71
2022/12/19 04:34:27;;;;;;;37.95;23.50;;;;;;;;;;5033755;28;20437;-71
2022/12/19 04:36:52;;;;;;;39.20;24.52;;;;;;;;;;5016098;28;20025;-71
2022/12/19 04:39:18;;;;;;;40.58;26.02;;;;;;;;;;5033890;28;20450;-71
2022/12/19 04:41:44;;;;;;;45.08;27.00;;;;;;;;;;5034116;28;20034;-70
2022/12/19 04:44:09;;;;;;;48.65;28.02;;;;;;;;;;5016102;28;20075;-71
2022/12/19 04:46:36;;;;;;;48.40;28.80;;;;;;;;;;5033752;28;20050;-70
2022/12/19 04:49:07;;;;;;;50.05;29.23;;;;;;;;;;5033688;28;20018;-70
2022/12/19 04:51:33;;;;;;;78.55;44.70;;;;;;;;;;5034270;28;20029;-70
2022/12/19 04:53:58;;;;;;;89.00;46.95;;;;;;;;;;5033683;28;20457;-71
2022/12/19 04:56:24;;;;;;;57.15;31.55;;;;;;;;;;5033690;28;20025;-71
2022/12/19 04:58:54;;;;;;;44.67;26.17;;;;;;;;;;5033738;28;20482;-71
2022/12/19 05:01:20;;;;;;;46.35;26.33;;;;;;;;;;5015427;28;20073;-71
2022/12/19 05:03:45;;;;;;;77.07;42.20;;;;;;;;;;5034333;28;20111;-71
2022/12/19 05:06:12;;;;;;;50.47;29.17;;;;;;;;;;5020144;28;20484;-71
2022/12/19 05:08:38;;;;;;;69.82;36.67;;;;;;;;;;5037371;28;20071;-71
2022/12/19 05:11:04;;;;;;;50.80;29.05;;;;;;;;;;5037063;28;20034;-72
2022/12/19 05:13:29;;;;;;;53.05;30.55;;;;;;;;;;5037114;28;20024;-72
2022/12/19 05:15:59;;;;;;;62.22;34.22;;;;;;;;;;5037146;28;20080;-72
2022/12/19 05:18:24;;;;;;;121.32;63.63;;;;;;;;;;5037399;28;20040;-72
2022/12/19 05:20:51;;;;;;;193.95;94.68;;;;;;;;;;5037352;28;20483;-72
2022/12/19 05:23:17;;;;;;;95.88;53.25;;;;;;;;;;5037193;28;20037;-72
2022/12/19 05:25:42;;;;;;;104.22;60.13;;;;;;;;;;5035568;28;20029;-71
2022/12/19 05:28:08;;;;;;;73.45;44.92;;;;;;;;;;5037189;28;20444;-72
2022/12/19 05:30:34;;;;;;;406.45;247.05;;;;;;;;;;5035285;28;20037;-71
2022/12/19 05:33:00;;;;;;;85.82;52.25;;;;;;;;;;5036869;28;20144;-72
2022/12/19 05:35:28;;;;;;;71.95;44.22;;;;;;;;;;5035507;28;20040;-71
2022/12/19 05:37:53;;;;;;;74.30;44.40;;;;;;;;;;5036447;28;20025;-71
2022/12/19 05:40:19;;;;;;;82.50;47.10;;;;;;;;;;5035118;28;20026;-71
2022/12/19 05:42:45;;;;;;;122.57;69.65;;;;;;;;;;5036580;28;20041;-72
2022/12/19 05:45:11;;;;;;;123.20;70.55;;;;;;;;;;5036715;28;20381;-72
2022/12/19 05:47:36;;;;;;;115.18;67.72;;;;;;;;;;5017875;28;20017;-71
2022/12/19 05:50:02;;;;;;;127.32;75.82;;;;;;;;;;5018575;28;20029;-71
2022/12/19 05:52:28;;;;;;;98.57;56.78;;;;;;;;;;5036840;28;20022;-70
2022/12/19 05:54:53;;;;;;;106.80;61.05;;;;;;;;;;5036045;28;20120;-70
2022/12/19 05:57:18;;;;;;;93.28;53.38;;;;;;;;;;5036419;28;20057;-70
2022/12/19 05:59:44;;;;;;;56.25;32.55;;;;;;;;;;5035946;28;20038;-71
2022/12/19 06:02:10;;;;;;;50.35;27.35;;;;;;;;;;5018823;28;20032;-70
2022/12/19 06:04:36;;;;;;;44.88;25.52;;;;;;;;;;5035803;28;20029;-71
2022/12/19 06:07:01;;;;;;;48.33;29.63;;;;;;;;;;5034770;28;20044;-70
2022/12/19 06:09:27;;;;;;;53.33;29.90;;;;;;;;;;5035809;28;20453;-71
2022/12/19 06:11:52;;;;;;;56.88;28.98;;;;;;;;;;5035755;28;20025;-70
2022/12/19 06:14:19;;;;;;;54.30;29.48;;;;;;;;;;5035790;28;20113;-71
2022/12/19 06:16:45;;;;;;;52.20;26.83;;;;;;;;;;5035241;28;20033;-70
2022/12/19 06:19:12;;;;;;;50.53;26.45;;;;;;;;;;5035466;28;20042;-70
2022/12/19 06:21:37;;;;;;;49.45;26.23;;;;;;;;;;5035615;28;20498;-70
2022/12/19 06:24:03;;;;;;;46.25;26.52;;;;;;;;;;5035590;28;20378;-71
2022/12/19 06:26:29;;;;;;;50.50;28.25;;;;;;;;;;5036147;28;20025;-71
2022/12/19 06:28:55;;;;;;;57.20;29.58;;;;;;;;;;5035829;28;20033;-71
2022/12/19 06:31:21;;;;;;;56.67;29.83;;;;;;;;;;5035063;28;20017;-71
2022/12/19 06:33:47;;;;;;;56.05;31.08;;;;;;;;;;5035313;28;20128;-71
2022/12/19 06:36:23;;;;;;;70.97;39.00;;;;;;;;;;5034002;28;20089;-71
2022/12/19 06:38:49;;;;;;;62.42;33.03;;;;;;;;;;5034308;28;20044;-71
2022/12/19 06:44:00;;;;;;;51.08;26.63;;;;;;;;;;5034676;28;20044;-71
2022/12/19 06:46:26;;;;;;;52.13;28.10;;;;;;;;;;5034476;28;20069;-71
2022/12/19 06:48:52;;;;;;;59.20;29.17;;;;;;;;;;5034603;28;20051;-71
2022/12/19 06:51:19;;;;;;;57.00;29.20;;;;;;;;;;5034563;28;20076;-71
2022/12/19 06:53:45;;;;;;;50.25;28.10;;;;;;;;;;5034196;28;20485;-70
2022/12/19 06:56:12;;;;;;;50.20;27.15;;;;;;;;;;5034164;28;20060;-71
2022/12/19 06:58:38;;;;;;;61.65;32.08;;;;;;;;;;5033360;28;20040;-71
2022/12/19 07:01:04;;;;;;;89.53;48.58;;;;;;;;;;5034855;28;20021;-71
2022/12/19 07:03:33;;;;;;;123.78;72.18;;;;;;;;;;5034740;28;20045;-71
2022/12/19 07:05:58;;;;;;;75.82;40.40;;;;;;;;;;5034544;28;20048;-70
2022/12/19 07:08:28;;;;;;;91.68;48.05;;;;;;;;;;5034831;28;20477;-70
2022/12/19 07:10:53;;;;;;;116.57;60.88;;;;;;;;;;5034429;28;20420;-70
2022/12/19 07:13:19;;;;;;;121.15;63.15;;;;;;;;;;5034792;28;20037;-70
2022/12/19 07:15:45;;;;;;;125.85;63.70;;;;;;;;;;5034735;28;20022;-70
2022/12/19 07:18:12;;;;;;;91.47;46.80;;;;;;;;;;5034586;28;20072;-70
2022/12/19 07:20:40;;;;;;;89.93;45.53;;;;;;;;;;5032462;28;20088;-70
2022/12/19 07:23:06;;;;;;;100.10;50.33;;;;;;;;;;5034136;28;20083;-70
2022/12/19 07:25:31;;;;;;;93.95;48.33;;;;;;;;;;5031828;28;20014;-71
2022/12/19 07:27:57;;;;;;;97.35;51.78;;;;;;;;;;5032105;28;20049;-70
2022/12/19 07:30:22;;;;;;;137.75;79.15;;;;;;;;;;5033120;28;20414;-70
2022/12/19 07:32:48;;;;;;;117.97;66.43;;;;;;;;;;5033149;28;20029;-70
2022/12/19 07:35:13;;;;;;;115.00;65.22;;;;;;;;;;5032938;28;20024;-70
2022/12/19 07:37:39;;;;;;;101.93;56.30;;;;;;;;;;5031749;28;20039;-70
2022/12/19 07:40:04;;;;;;;90.40;49.53;;;;;;;;;;5033251;28;20025;-70
2022/12/19 07:42:30;;;;;;;84.40;46.50;;;;;;;;;;5032856;28;20385;-70
2022/12/19 07:44:55;;;;;;;85.80;47.60;;;;;;;;;;5031503;28;20022;-70
2022/12/19 07:47:20;;;;;;;85.05;42.22;;;;;;;;;;5032910;28;20029;-70
2022/12/19 07:49:46;;;;;;;96.75;49.47;;;;;;;;;;5032772;28;20523;-70
2022/12/19 07:52:12;;;;;;;90.45;44.75;;;;;;;;;;5032861;28;20036;-70
2022/12/19 07:54:38;;;;;;;73.80;37.25;;;;;;;;;;5032957;28;20022;-70
2022/12/19 07:57:04;;;;;;;91.28;46.40;;;;;;;;;;5032877;28;20025;-70
2022/12/19 07:59:29;;;;;;;106.03;55.40;;;;;;;;;;5032764;28;20018;-70
2022/12/19 08:01:55;;;;;;;132.60;64.60;;;;;;;;;;5032522;28;20041;-70
2022/12/19 08:04:20;;;;;;;133.20;64.90;;;;;;;;;;5032809;28;20022;-70
2022/12/19 08:06:45;;;;;;;136.32;69.57;;;;;;;;;;5032682;28;20394;-70
2022/12/19 08:09:11;;;;;;;131.93;72.25;;;;;;;;;;5031619;28;20488;-70
2022/12/19 08:11:36;;;;;;;87.25;55.05;;;;;;;;;;5032049;28;20040;-70
2022/12/19 08:14:02;;;;;;;78.20;45.35;;;;;;;;;;5032628;28;20096;-70
2022/12/19 08:16:28;;;;;;;72.35;41.13;;;;;;;;;;5032294;28;20523;-70
2022/12/19 08:18:54;;;;;;;74.32;41.45;;;;;;;;;;5032186;28;20045;-70
2022/12/19 08:21:20;;;;;;;66.88;37.00;;;;;;;;;;5032459;28;20045;-70
2022/12/19 08:23:46;;;;;;;71.03;37.95;;;;;;;;;;5031138;28;20025;-70
2022/12/19 08:26:16;;;;;;;70.43;37.47;;;;;;;;;;5032114;28;20440;-70
2022/12/19 08:28:42;;;;;;;73.03;39.38;;;;;;;;;;5032207;28;20100;-70
2022/12/19 08:31:10;;;;;;;78.55;40.35;;;;;;;;;;5031629;28;20057;-70
2022/12/19 08:33:35;;;;;;;82.93;44.72;;;;;;;;;;5031032;28;20053;-70
2022/12/19 08:36:05;;;;;;;119.05;52.05;;;;;;;;;;5032172;28;20056;-71
2022/12/19 08:38:31;;;;;;;147.23;72.68;;;;;;;;;;5032525;28;20025;-71
2022/12/19 08:40:57;;;;;;;138.82;79.70;;;;;;;;;;5036165;28;20041;-71
2022/12/19 08:43:23;;;;;;;81.60;47.83;;;;;;;;;;5036497;28;20096;-71
2022/12/19 08:45:49;;;;;;;77.05;42.63;;;;;;;;;;5036376;28;20366;-71
2022/12/19 08:48:15;;;;;;;67.65;36.88;;;;;;;;;;5036437;28;20291;-71
2022/12/19 08:50:53;;;;;;;66.32;36.28;;;;;;;;;;5036093;28;20033;-71
2022/12/19 08:53:19;;;;;;;61.08;32.85;;;;;;;;;;5035950;28;20021;-71
2022/12/19 08:55:45;;;;;;;67.38;35.28;;;;;;;;;;5035766;28;20504;-71
2022/12/19 08:58:11;;;;;;;63.42;36.30;;;;;;;;;;5035698;28;20061;-71
2022/12/19 09:00:36;;;;;;;60.45;35.20;;;;;;;;;;5036162;28;20025;-71
2022/12/19 09:03:02;;;;;;;73.82;44.60;;;;;;;;;;5035938;28;20021;-71
2022/12/19 09:05:27;;;;;;;74.82;48.70;;;;;;;;;;5036078;28;20014;-71
2022/12/19 09:07:53;;;;;;;73.75;44.70;;;;;;;;;;5035429;28;20381;-71
2022/12/19 09:10:18;;;;;;;64.28;39.08;;;;;;;;;;5035982;28;20017;-71
2022/12/19 09:12:44;;;;;;;57.90;32.72;;;;;;;;;;5035762;28;20374;-71
2022/12/19 09:15:09;;;;;;;59.45;31.75;;;;;;;;;;5035888;28;20028;-71
2022/12/19 09:17:35;;;;;;;66.05;32.97;;;;;;;;;;5034411;28;20032;-71
2022/12/19 09:20:01;;;;;;;69.35;36.00;;;;;;;;;;5034982;28;20390;-71
2022/12/19 09:22:27;;;;;;;58.35;33.85;;;;;;;;;;5035942;28;20036;-70
2022/12/19 09:24:52;;;;;;;78.57;44.42;;;;;;;;;;5034269;28;20100;-71
2022/12/19 09:27:19;;;;;;;229.43;141.50;;;;;;;;;;5035622;28;20487;-71
2022/12/19 09:29:44;;;;;;;87.70;55.53;;;;;;;;;;5035503;28;20079;-71
2022/12/19 09:32:11;;;;;;;75.47;50.70;;;;;;;;;;5035512;28;20026;-71
2022/12/19 09:34:37;;;;;;;62.63;39.22;;;;;;;;;;5035296;28;20416;-71
2022/12/19 09:37:03;;;;;;;65.78;42.88;;;;;;;;;;5035225;28;20370;-71
2022/12/19 09:39:28;;;;;;;56.53;32.00;;;;;;;;;;5035452;28;20053;-71
2022/12/19 09:42:05;;;;;;;58.75;32.72;;;;;;;;;;5035147;28;20078;-71
2022/12/19 09:44:30;;;;;;;61.75;33.65;;;;;;;;;;5035056;28;20060;-71
2022/12/19 09:46:58;;;;;;;59.75;34.85;;;;;;;;;;5035000;28;20461;-71
2022/12/19 09:49:27;;;;;;;64.32;34.22;;;;;;;;;;5035148;28;20067;-71
2022/12/19 09:51:52;;;;;;;61.55;33.25;;;;;;;;;;5034042;28;20025;-71
2022/12/19 09:54:34;;;;;;;65.82;36.97;;;;;;;;;;5034590;28;20022;-71
2022/12/19 09:57:04;;;;;;;63.78;34.97;;;;;;;;;;5034623;28;20480;-71
2022/12/19 09:59:41;;;;;;;68.50;36.92;;;;;;;;;;5034806;28;20362;-71
2022/12/19 10:02:22;;;;;;;61.33;35.08;;;;;;;;;;5032718;28;20037;-71
2022/12/19 10:04:50;;;;;;;48.58;26.50;;;;;;;;;;5033402;28;20033;-71
2022/12/19 10:07:17;;;;;;;52.75;26.92;;;;;;;;;;5034451;28;20025;-71
2022/12/19 10:09:43;;;;;;;49.45;26.98;;;;;;;;;;5035008;28;20029;-71
2022/12/19 10:12:31;;;;;;;48.53;26.00;;;;;;;;;;5033454;28;20421;-71
2022/12/19 10:15:20;;;;;;;50.47;28.75;;;;;;;;;;5034656;28;20495;-71
2022/12/19 10:17:52;;;;;;;64.60;31.95;;;;;;;;;;5033472;28;20424;-71
2022/12/19 10:20:37;;;;;;;57.70;30.02;;;;;;;;;;5033214;28;20404;-71
2022/12/19 10:23:12;;;;;;;70.78;35.35;;;;;;;;;;5034549;28;20167;-71
2022/12/19 10:25:38;;;;;;;69.22;35.35;;;;;;;;;;5034026;28;20032;-71
2022/12/19 10:28:18;;;;;;;85.60;42.28;;;;;;;;;;5033184;28;20018;-71
2022/12/19 10:30:50;;;;;;;66.95;37.17;;;;;;;;;;5034207;28;20029;-71
2022/12/19 10:33:27;;;;;;;64.22;36.40;;;;;;;;;;5034360;28;20026;-71
2022/12/19 10:35:56;;;;;;;67.00;33.85;;;;;;;;;;5034201;28;20033;-71
2022/12/19 10:38:31;;;;;;;74.47;39.85;;;;;;;;;;5034247;28;20021;-71
2022/12/19 10:40:59;;;;;;;65.25;31.73;;;;;;;;;;5035634;28;20056;-71
2022/12/19 10:43:46;;;;;;;57.95;29.80;;;;;;;;;;5033981;28;20032;-71
2022/12/19 10:46:16;;;;;;;65.53;32.90;;;;;;;;;;5035122;28;20040;-71
2022/12/19 10:48:42;;;;;;;61.78;29.92;;;;;;;;;;5035492;28;20029;-71
2022/12/19 10:51:12;;;;;;;73.40;33.08;;;;;;;;;;5034920;28;20369;-71
2022/12/19 10:53:38;;;;;;;79.78;38.00;;;;;;;;;;5035031;28;20031;-71
2022/12/19 10:56:19;;;;;;;62.65;32.33;;;;;;;;;;5035113;28;20376;-72
2022/12/19 10:58:49;;;;;;;72.63;33.22;;;;;;;;;;5034885;28;20033;-72
2022/12/19 11:01:24;;;;;;;76.82;36.17;;;;;;;;;;5035068;28;20041;-72
2022/12/19 11:04:12;;;;;;;61.63;31.65;;;;;;;;;;5034819;28;20030;-72
2022/12/19 11:06:40;;;;;;;65.40;31.38;;;;;;;;;;5032675;28;20524;-72
2022/12/19 11:09:15;;;;;;;73.43;34.22;;;;;;;;;;5035481;28;20392;-72
2022/12/19 11:11:41;;;;;;;78.15;34.83;;;;;;;;;;5033645;28;20119;-72
2022/12/19 11:14:43;;;;;;;82.05;36.45;;;;;;;;;;5034791;28;20052;-72
2022/12/19 11:17:25;;;;;;;81.28;37.45;;;;;;;;;;4974033;28;20112;-72
2022/12/19 11:19:52;;;;;;;73.13;35.55;;;;;;;;;;5028717;28;20065;-72
2022/12/19 11:22:23;;;;;;;80.97;40.88;;;;;;;;;;5034066;28;20036;-72
2022/12/19 11:24:50;;;;;;;60.55;30.45;;;;;;;;;;5034391;28;20025;-72
2022/12/19 11:27:31;;;;;;;62.75;30.58;;;;;;;;;;5033303;28;20026;-72
2022/12/19 11:29:58;;;;;;;52.35;27.02;;;;;;;;;;5034464;28;20036;-72
2022/12/19 11:32:31;;;;;;;39.95;23.15;;;;;;;;;;5034238;28;20071;-72
2022/12/19 11:35:05;;;;;;;64.70;34.08;;;;;;;;;;5032273;28;20037;-72
2022/12/19 11:37:39;;;;;;;72.03;35.83;;;;;;;;;;5034257;28;20022;-72
2022/12/19 11:40:12;;;;;;;68.35;33.30;;;;;;;;;;5033959;28;20040;-72
2022/12/19 11:42:48;;;;;;;58.13;28.27;;;;;;;;;;5034115;28;20029;-72
2022/12/19 11:45:17;;;;;;;51.88;27.13;;;;;;;;;;5032991;28;20037;-72
2022/12/19 11:47:53;;;;;;;61.10;30.10;;;;;;;;;;5034698;28;20029;-73
2022/12/19 11:50:30;;;;;;;57.45;29.90;;;;;;;;;;5033562;28;20036;-72
2022/12/19 11:53:01;;;;;;;65.40;35.88;;;;;;;;;;5034227;28;20029;-73
2022/12/19 11:55:45;;;;;;;77.47;39.13;;;;;;;;;;5033652;28;20021;-73
2022/12/19 11:58:11;;;;;;;73.05;37.03;;;;;;;;;;5032604;28;20030;-73
2022/12/19 12:00:41;;;;;;;70.35;37.13;;;;;;;;;;5033896;28;20492;-73
2022/12/19 12:03:39;;;;;;;52.38;29.50;;;;;;;;;;5033485;28;20025;-73
2022/12/19 12:06:10;;;;;;;46.97;26.25;;;;;;;;;;5001447;28;20038;-73
2022/12/19 12:08:35;;;;;;;;;;;;;;;;;;5033146;28;20045;-73
2022/12/19 12:11:01;;;;;;;51.23;28.67;;;;;;;;;;5034250;28;19909;-73
2022/12/19 12:13:49;;;;;;;56.25;30.58;;;;;;;;;;5032350;28;20396;-73
2022/12/19 12:16:16;;;;;;;58.05;30.27;;;;;;;;;;5034067;28;20109;-73
2022/12/19 12:19:14;;;;;;;53.65;29.20;;;;;;;;;;5033263;28;20038;-73
2022/12/19 12:22:02;;;;;;;73.97;38.35;;;;;;;;;;5000399;28;20037;-73
2022/12/19 12:24:41;;;;;;;72.70;36.55;;;;;;;;;;5032224;28;20032;-73
2022/12/19 12:27:26;;;;;;;75.38;39.05;;;;;;;;;;5032392;28;20033;-73
2022/12/19 12:29:54;;;;;;;70.30;40.75;;;;;;;;;;5033252;28;20029;-73
2022/12/19 12:32:37;;;;;;;78.80;43.00;;;;;;;;;;5031742;28;20036;-73
2022/12/19 12:35:22;;;;;;;89.35;53.13;;;;;;;;;;5033405;28;20426;-74
2022/12/19 12:38:07;;;;;;;97.45;57.58;;;;;;;;;;5033260;28;20044;-73
2022/12/19 12:40:32;;;;;;;72.20;40.28;;;;;;;;;;5033484;28;20026;-73
2022/12/19 12:43:24;;;;;;;73.65;37.85;;;;;;;;;;5033143;28;20017;-73
2022/12/19 12:45:50;;;;;;;76.95;38.63;;;;;;;;;;5010982;28;20052;-73
2022/12/19 12:48:23;;;;;;;74.28;37.13;;;;;;;;;;5033957;28;20021;-73
2022/12/19 12:50:49;;;;;;;69.55;35.88;;;;;;;;;;5031923;28;20382;-73
2022/12/19 12:53:16;;;;;;;62.63;34.03;;;;;;;;;;5033640;28;20021;-73
2022/12/19 12:55:43;;;;;;;63.88;33.92;;;;;;;;;;5033229;28;20484;-73
2022/12/19 12:58:41;;;;;;;78.18;38.17;;;;;;;;;;5033342;28;20022;-73
2022/12/19 13:01:09;;;;;;;68.68;37.05;;;;;;;;;;5000632;28;20108;-73
2022/12/19 13:03:34;;;;;;;69.85;35.70;;;;;;;;;;5031253;28;20024;-73
2022/12/19 13:06:19;;;;;;;62.70;31.83;;;;;;;;;;5032153;28;20034;-73
2022/12/19 13:08:48;;;;;;;48.40;29.23;;;;;;;;;;5032092;28;20126;-73
2022/12/19 13:14:05;;;;;;;60.70;36.00;;;;;;;;;;5030832;28;20065;-72
2022/12/19 13:16:42;;;;;;;61.65;35.40;;;;;;;;;;5030543;28;20457;-72
2022/12/19 13:19:28;;;;;;;59.80;35.60;;;;;;;;;;5030880;28;20042;-73
2022/12/19 13:22:07;;;;;;;63.35;35.47;;;;;;;;;;5031092;28;20133;-73
2022/12/19 13:24:37;;;;;;;76.55;41.15;;;;;;;;;;5032111;28;20037;-73
2022/12/19 13:27:25;;;;;;;112.80;71.22;;;;;;;;;;5036811;28;20034;-73
2022/12/19 13:29:59;;;;;;;94.93;52.00;;;;;;;;;;5034629;28;20369;-73
2022/12/19 13:32:32;;;;;;;62.20;36.47;;;;;;;;;;5035536;28;20368;-72
2022/12/19 13:34:59;;;;;;;56.08;31.38;;;;;;;;;;5036784;28;20035;-72
2022/12/19 13:37:30;;;;;;;50.10;28.33;;;;;;;;;;5036738;28;20029;-72
2022/12/19 13:39:55;;;;;;;57.20;32.67;;;;;;;;;;5035820;28;20025;-72
2022/12/19 13:45:14;;;;;;;48.53;28.27;;;;;;;;;;5034263;28;20033;-71
2022/12/19 13:47:41;;;;;;;61.20;34.70;;;;;;;;;;5034086;28;20450;-71
2022/12/19 13:50:20;;;;;;;100.40;60.38;;;;;;;;;;5035450;28;20453;-72
2022/12/19 13:52:47;;;;;;;122.93;73.03;;;;;;;;;;5035099;28;20029;-72
2022/12/19 13:55:13;;;;;;;79.25;45.88;;;;;;;;;;5034990;28;20381;-72
2022/12/19 13:57:39;;;;;;;74.05;41.30;;;;;;;;;;5035094;28;20064;-72
2022/12/19 14:00:08;;;;;;;69.90;39.95;;;;;;;;;;5035216;28;20033;-72
2022/12/19 14:02:39;;;;;;;88.13;51.72;;;;;;;;;;5033808;28;20030;-72
2022/12/19 14:05:17;;;;;;;92.50;55.67;;;;;;;;;;5034943;28;20465;-73
2022/12/19 14:07:45;;;;;;;88.50;50.25;;;;;;;;;;5034382;28;20077;-73
2022/12/19 14:10:15;;;;;;;330.27;173.23;;;;;;;;;;5035522;28;20025;-73
2022/12/19 14:15:28;;;;;;;93.28;53.60;;;;;;;;;;5035993;28;20038;-73
2022/12/19 14:17:54;;;;;;;1042.63;577.13;;;;;;;;;;5035649;28;20357;-70
2022/12/19 14:20:24;;;;;;;821.97;456.70;;;;;;;;;;5017306;28;20053;-70
2022/12/19 14:22:55;;;;;;;590.35;289.10;;;;;;;;;;5017834;28;20033;-71
2022/12/19 14:25:22;;;;;;;380.15;156.38;;;;;;;;;;5001932;28;20040;-70
2022/12/19 14:27:50;;;;;;;276.80;118.55;;;;;;;;;;5036272;28;20106;-70
2022/12/19 14:30:22;;;;;;;183.40;81.63;;;;;;;;;;5035049;28;20175;-70
2022/12/19 14:32:48;;;;;;;;;;;;;;;;;;5035358;28;20033;-70
2022/12/19 14:35:18;;;;;;;116.33;53.23;;;;;;;;;;5017977;28;20244;-69
2022/12/19 14:37:46;;;;;;;57.78;33.03;;;;;;;;;;5017455;28;20043;-70
2022/12/19 14:40:20;;;;;;;63.22;33.30;;;;;;;;;;5035130;28;20018;-70
2022/12/19 14:45:30;;;;;;;114.65;50.70;;;;;;;;;;5016966;28;20048;-69